createdAt,value
2023-02-19T00:00:58.830Z,85.9
2023-02-19T00:01:58.815Z,85.9
2023-02-19T00:02:58.780Z,85.9
2023-02-19T00:03:58.786Z,85.9
2023-02-19T00:04:58.893Z,85.9
2023-02-19T00:05:58.799Z,85.9
2023-02-19T00:06:58.772Z,85.9
2023-02-19T00:07:58.780Z,85.9
2023-02-19T00:08:58.796Z,85.9
2023-02-19T00:09:58.795Z,85.9
2023-02-19T00:10:58.791Z,85.9
2023-02-19T00:11:58.799Z,85.5
2023-02-19T00:12:58.803Z,85.5
2023-02-19T00:13:58.804Z,85.5
2023-02-19T00:14:58.811Z,85.5
2023-02-19T00:15:58.829Z,85.5
2023-02-19T00:16:58.793Z,85.5
2023-02-19T00:17:58.790Z,85.5
2023-02-19T00:18:58.832Z,85.5
2023-02-19T00:19:58.775Z,85.5
2023-02-19T00:20:58.790Z,85.5
2023-02-19T00:21:58.777Z,85.5
2023-02-19T00:22:58.807Z,85.5
2023-02-19T00:23:58.830Z,85.5
2023-02-19T00:24:58.874Z,85.5
2023-02-19T00:26:06.008Z,85.5
2023-02-19T00:26:58.807Z,85.5
2023-02-19T00:27:58.827Z,85.5
2023-02-19T00:28:58.837Z,85.4
2023-02-19T00:29:58.902Z,85.4
2023-02-19T00:30:58.950Z,85.4
2023-02-19T00:31:58.940Z,85.4
2023-02-19T00:32:58.823Z,85.4
2023-02-19T00:33:58.811Z,85.4
2023-02-19T00:34:58.888Z,85.4
2023-02-19T00:35:58.870Z,85.4
2023-02-19T00:36:58.809Z,85.4
2023-02-19T00:37:58.801Z,85.4
2023-02-19T00:38:58.840Z,85.4
2023-02-19T00:39:58.829Z,85.4
2023-02-19T00:40:58.855Z,85.4
2023-02-19T00:41:58.861Z,85.4
2023-02-19T00:42:58.829Z,85.4
2023-02-19T00:43:58.841Z,85.4
2023-02-19T00:44:58.843Z,85.4
2023-02-19T00:45:58.912Z,85.4
2023-02-19T00:46:58.843Z,85.4
2023-02-19T00:47:58.842Z,85.4
2023-02-19T00:48:58.814Z,85.9
2023-02-19T00:49:58.853Z,85.9
2023-02-19T00:50:58.841Z,85.9
2023-02-19T00:51:58.856Z,85.9
2023-02-19T00:52:58.834Z,85.9
2023-02-19T00:53:58.943Z,85.9
2023-02-19T00:54:58.931Z,85.9
2023-02-19T00:55:58.836Z,85.9
2023-02-19T00:56:58.854Z,85.9
2023-02-19T00:57:58.852Z,85.9
2023-02-19T00:58:58.853Z,85.9
2023-02-19T00:59:58.835Z,85.9
2023-02-19T01:00:58.857Z,85.9
2023-02-19T01:01:58.868Z,85.9
2023-02-19T01:02:58.860Z,85.9
2023-02-19T01:03:58.834Z,85.9
2023-02-19T01:04:58.905Z,85.9
2023-02-19T01:05:58.855Z,85.9
2023-02-19T01:06:58.845Z,85.9
2023-02-19T01:07:58.893Z,85.9
2023-02-19T01:08:58.899Z,85.9
2023-02-19T01:09:58.853Z,85.9
2023-02-19T01:10:58.856Z,85.9
2023-02-19T01:11:58.950Z,87
2023-02-19T01:12:58.874Z,87
2023-02-19T01:13:58.845Z,87
2023-02-19T01:14:58.855Z,87
2023-02-19T01:15:58.895Z,87
2023-02-19T01:16:58.840Z,87
2023-02-19T01:17:58.857Z,87
2023-02-19T01:18:58.959Z,87
2023-02-19T01:19:58.872Z,87
2023-02-19T01:20:58.841Z,87
2023-02-19T01:21:58.937Z,87
2023-02-19T01:22:58.884Z,87
2023-02-19T01:23:58.914Z,87
2023-02-19T01:24:58.888Z,87
2023-02-19T01:25:58.974Z,87
2023-02-19T01:26:58.876Z,87
2023-02-19T01:27:58.873Z,87
2023-02-19T01:28:58.929Z,87
2023-02-19T01:29:58.963Z,87
2023-02-19T01:30:58.935Z,87
2023-02-19T01:31:58.981Z,87
2023-02-19T01:32:58.875Z,87
2023-02-19T01:33:58.901Z,87
2023-02-19T01:34:58.868Z,87
2023-02-19T01:35:58.914Z,87
2023-02-19T01:36:58.911Z,87
2023-02-19T01:37:58.906Z,87
2023-02-19T01:38:58.908Z,87
2023-02-19T01:39:58.907Z,87
2023-02-19T01:40:58.918Z,87
2023-02-19T01:41:58.908Z,87
2023-02-19T01:42:58.886Z,87
2023-02-19T01:43:58.942Z,87
2023-02-19T01:44:58.955Z,87
2023-02-19T01:45:58.905Z,87
2023-02-19T01:46:58.942Z,87
2023-02-19T01:47:58.923Z,87
2023-02-19T01:48:58.897Z,87
2023-02-19T01:49:58.916Z,87
2023-02-19T01:50:59.161Z,87
2023-02-19T01:51:58.923Z,87
2023-02-19T01:52:58.910Z,87
2023-02-19T01:53:58.879Z,87
2023-02-19T01:54:58.892Z,87
2023-02-19T01:55:58.925Z,87
2023-02-19T01:56:58.977Z,87
2023-02-19T01:57:58.936Z,87
2023-02-19T01:58:58.880Z,87
2023-02-19T01:59:58.881Z,87
2023-02-19T02:00:59.023Z,87
2023-02-19T02:01:58.917Z,87
2023-02-19T02:02:59.056Z,87
2023-02-19T02:03:58.891Z,87
2023-02-19T02:04:58.924Z,87
2023-02-19T02:05:58.932Z,87
2023-02-19T02:06:58.934Z,87
2023-02-19T02:07:58.895Z,87
2023-02-19T02:08:58.905Z,87
2023-02-19T02:09:58.937Z,87
2023-02-19T02:10:58.942Z,88.5
2023-02-19T02:11:58.934Z,88.5
2023-02-19T02:12:58.925Z,88.5
2023-02-19T02:13:58.895Z,88.5
2023-02-19T02:14:58.932Z,88.5
2023-02-19T02:15:58.930Z,88.5
2023-02-19T02:16:58.892Z,88.5
2023-02-19T02:17:58.892Z,88.5
2023-02-19T02:18:58.933Z,88.5
2023-02-19T02:19:58.987Z,88.5
2023-02-19T02:20:58.940Z,88.5
2023-02-19T02:21:58.966Z,88.5
2023-02-19T02:22:58.934Z,88.5
2023-02-19T02:23:58.918Z,88.5
2023-02-19T02:24:58.946Z,88.5
2023-02-19T02:25:58.996Z,88.5
2023-02-19T02:26:58.972Z,88.5
2023-02-19T02:27:58.944Z,88.5
2023-02-19T02:28:58.946Z,88.5
2023-02-19T02:29:58.963Z,88.5
2023-02-19T02:30:58.972Z,88.5
2023-02-19T02:31:59.071Z,88.5
2023-02-19T02:32:59.011Z,88.5
2023-02-19T02:33:58.935Z,88.5
2023-02-19T02:34:58.957Z,88.5
2023-02-19T02:35:58.986Z,88.5
2023-02-19T02:36:58.924Z,88.5
2023-02-19T02:37:58.923Z,88.5
2023-02-19T02:38:58.919Z,88.5
2023-02-19T02:39:58.937Z,88.5
2023-02-19T02:40:58.975Z,88.5
2023-02-19T02:41:58.928Z,88.5
2023-02-19T02:42:58.929Z,88.5
2023-02-19T02:43:59.034Z,88.5
2023-02-19T02:44:58.973Z,88.5
2023-02-19T02:45:59.043Z,88.5
2023-02-19T02:46:58.927Z,88.5
2023-02-19T02:47:58.947Z,88.5
2023-02-19T02:48:58.933Z,88.5
2023-02-19T02:49:59.023Z,88.5
2023-02-19T02:50:58.938Z,88.5
2023-02-19T02:51:58.925Z,88.5
2023-02-19T02:52:58.924Z,88.5
2023-02-19T02:53:58.945Z,88.5
2023-02-19T02:55:00.627Z,88.5
2023-02-19T02:55:58.977Z,88.5
2023-02-19T02:56:58.939Z,88.5
2023-02-19T02:57:58.933Z,88.5
2023-02-19T02:58:58.945Z,88.5
2023-02-19T02:59:59.016Z,88.5
2023-02-19T03:00:59.001Z,88.3
2023-02-19T03:01:58.957Z,88.3
2023-02-19T03:02:58.943Z,88.3
2023-02-19T03:03:58.940Z,88.3
2023-02-19T03:04:58.982Z,88.3
2023-02-19T03:05:58.993Z,88.3
2023-02-19T03:06:58.928Z,88.3
2023-02-19T03:07:58.940Z,88.3
2023-02-19T03:08:58.953Z,88.3
2023-02-19T03:09:58.944Z,88.3
2023-02-19T03:10:58.930Z,88.3
2023-02-19T03:11:58.959Z,88.3
2023-02-19T03:12:58.998Z,88.3
2023-02-19T03:13:58.952Z,88.3
2023-02-19T03:14:58.981Z,88.3
2023-02-19T03:15:58.987Z,88.3
2023-02-19T03:16:58.986Z,88.3
2023-02-19T03:17:58.958Z,88.3
2023-02-19T03:18:58.978Z,88.3
2023-02-19T03:19:58.958Z,88.3
2023-02-19T03:20:58.934Z,88.3
2023-02-19T03:21:58.980Z,88.3
2023-02-19T03:22:58.986Z,88.3
2023-02-19T03:23:58.938Z,88.3
2023-02-19T03:24:58.969Z,88.3
2023-02-19T03:25:58.947Z,88.3
2023-02-19T03:26:58.983Z,88.3
2023-02-19T03:27:58.986Z,88.3
2023-02-19T03:28:58.950Z,88.3
2023-02-19T03:29:59.089Z,88.3
2023-02-19T03:30:58.997Z,88.3
2023-02-19T03:31:59.116Z,88.3
2023-02-19T03:32:58.965Z,88.3
2023-02-19T03:33:58.955Z,87.5
2023-02-19T03:34:59.009Z,87.5
2023-02-19T03:35:58.979Z,87.5
2023-02-19T03:36:59.002Z,87.5
2023-02-19T03:37:58.935Z,87.5
2023-02-19T03:38:58.945Z,87.5
2023-02-19T03:39:58.973Z,87.5
2023-02-19T03:40:58.987Z,87.5
2023-02-19T03:41:58.951Z,87.5
2023-02-19T03:42:58.967Z,87.5
2023-02-19T03:43:58.953Z,87.5
2023-02-19T03:44:58.954Z,87.5
2023-02-19T03:45:59.041Z,87.5
2023-02-19T03:46:58.987Z,87.5
2023-02-19T03:47:58.974Z,87.5
2023-02-19T03:48:59.013Z,87.5
2023-02-19T03:49:59.008Z,87.5
2023-02-19T03:50:58.988Z,87.5
2023-02-19T03:51:58.998Z,87.5
2023-02-19T03:52:58.971Z,87.5
2023-02-19T03:53:58.968Z,87.5
2023-02-19T03:54:58.995Z,87.5
2023-02-19T03:55:59.005Z,87.5
2023-02-19T03:56:59.270Z,87.5
2023-02-19T03:57:59.001Z,86.7
2023-02-19T03:58:58.961Z,86.7
2023-02-19T03:59:58.980Z,86.7
2023-02-19T04:00:59.000Z,86.2
2023-02-19T04:01:59.021Z,86.2
2023-02-19T04:02:59.042Z,86.2
2023-02-19T04:03:58.998Z,86.2
2023-02-19T04:05:03.019Z,86.2
2023-02-19T04:05:59.005Z,86.2
2023-02-19T04:06:59.543Z,86.2
2023-02-19T04:07:59.044Z,86.2
2023-02-19T04:08:58.974Z,86.2
2023-02-19T04:09:58.986Z,86.2
2023-02-19T04:10:59.003Z,86.2
2023-02-19T04:12:01.318Z,86.2
2023-02-19T04:12:59.042Z,86.2
2023-02-19T04:14:00.024Z,86.2
2023-02-19T04:14:59.026Z,86.2
2023-02-19T04:15:59.047Z,86.2
2023-02-19T04:16:59.289Z,86.2
2023-02-19T04:17:59.038Z,86.2
2023-02-19T04:19:00.281Z,86.2
2023-02-19T04:19:59.000Z,86.2
2023-02-19T04:20:59.028Z,86.2
2023-02-19T04:21:59.022Z,86.2
2023-02-19T04:22:59.017Z,86.2
2023-02-19T04:23:58.981Z,86.2
2023-02-19T04:24:59.285Z,86.2
2023-02-19T04:25:59.028Z,86.2
2023-02-19T04:26:59.049Z,86.2
2023-02-19T04:27:59.019Z,86.2
2023-02-19T04:28:59.010Z,86.2
2023-02-19T04:29:59.081Z,83.4
2023-02-19T04:30:59.096Z,83.4
2023-02-19T04:31:59.042Z,83.4
2023-02-19T04:32:59.054Z,83.4
2023-02-19T04:33:59.020Z,83.4
2023-02-19T04:34:59.030Z,83.4
2023-02-19T04:35:59.032Z,83.4
2023-02-19T04:36:59.026Z,83.4
2023-02-19T04:38:00.035Z,83.4
2023-02-19T04:38:59.032Z,83.4
2023-02-19T04:39:59.036Z,83.4
2023-02-19T04:40:59.000Z,83.4
2023-02-19T04:41:59.017Z,83.4
2023-02-19T04:42:59.042Z,83.4
2023-02-19T04:43:59.036Z,83.4
2023-02-19T04:45:00.110Z,83.4
2023-02-19T04:46:00.352Z,83.4
2023-02-19T04:47:00.147Z,83.4
2023-02-19T04:47:59.053Z,83.4
2023-02-19T04:48:59.028Z,83.4
2023-02-19T04:49:59.037Z,83.4
2023-02-19T04:50:58.997Z,83.4
2023-02-19T04:51:59.005Z,82.3
2023-02-19T04:52:58.995Z,82.3
2023-02-19T04:53:59.045Z,82.3
2023-02-19T04:54:59.018Z,82.3
2023-02-19T04:55:59.028Z,82.3
2023-02-19T04:56:58.994Z,82.3
2023-02-19T04:57:59.026Z,82.3
2023-02-19T04:58:59.014Z,82.3
2023-02-19T04:59:59.015Z,82.3
2023-02-19T05:00:58.997Z,82.3
2023-02-19T05:01:59.048Z,82.3
2023-02-19T05:02:59.068Z,82.3
2023-02-19T05:03:58.999Z,81.5
2023-02-19T05:04:59.014Z,81.5
2023-02-19T05:05:59.011Z,81.5
2023-02-19T05:06:59.158Z,81.5
2023-02-19T05:07:59.026Z,81.5
2023-02-19T05:08:59.038Z,81.5
2023-02-19T05:09:59.077Z,81.5
2023-02-19T05:10:59.093Z,81.5
2023-02-19T05:11:59.056Z,81.5
2023-02-19T05:12:59.092Z,81.5
2023-02-19T05:13:59.037Z,81.5
2023-02-19T05:14:59.084Z,81.5
2023-02-19T05:15:59.174Z,81.5
2023-02-19T05:16:59.033Z,81.5
2023-02-19T05:17:59.030Z,81.5
2023-02-19T05:18:59.032Z,81.5
2023-02-19T05:19:59.040Z,81.5
2023-02-19T05:20:59.047Z,81.5
2023-02-19T05:21:59.037Z,81.5
2023-02-19T05:22:59.074Z,81.5
2023-02-19T05:23:59.098Z,81.5
2023-02-19T05:24:59.050Z,81.5
2023-02-19T05:25:59.069Z,81.5
2023-02-19T05:26:59.029Z,81.5
2023-02-19T05:27:59.051Z,81.5
2023-02-19T05:28:59.049Z,81.5
2023-02-19T05:29:59.175Z,81.5
2023-02-19T05:31:02.135Z,81.5
2023-02-19T05:31:59.158Z,81.5
2023-02-19T05:32:59.050Z,81.5
2023-02-19T05:33:59.064Z,81.5
2023-02-19T05:34:59.078Z,81.5
2023-02-19T05:35:59.024Z,81.5
2023-02-19T05:36:59.056Z,81.5
2023-02-19T05:37:59.027Z,81.5
2023-02-19T05:38:59.036Z,81.5
2023-02-19T05:39:59.050Z,81.5
2023-02-19T05:40:59.129Z,81.5
2023-02-19T05:41:59.047Z,81.1
2023-02-19T05:42:59.045Z,81.1
2023-02-19T05:43:59.077Z,81.1
2023-02-19T05:44:59.078Z,81.1
2023-02-19T05:45:59.098Z,81.1
2023-02-19T05:46:59.037Z,81.1
2023-02-19T05:47:59.045Z,81.1
2023-02-19T05:48:59.059Z,81.1
2023-02-19T05:49:59.053Z,81.1
2023-02-19T05:51:02.075Z,81
2023-02-19T05:51:59.090Z,81
2023-02-19T05:52:59.056Z,81
2023-02-19T05:53:59.031Z,81
2023-02-19T05:54:59.084Z,81
2023-02-19T05:55:59.074Z,81
2023-02-19T05:56:59.062Z,81
2023-02-19T05:57:59.121Z,81
2023-02-19T05:58:59.055Z,81
2023-02-19T05:59:59.076Z,81
2023-02-19T06:00:59.121Z,81
2023-02-19T06:01:59.072Z,81
2023-02-19T06:02:59.091Z,81
2023-02-19T06:03:59.186Z,81
2023-02-19T06:04:59.099Z,81
2023-02-19T06:05:59.120Z,81
2023-02-19T06:06:59.071Z,81
2023-02-19T06:07:59.119Z,80.7
2023-02-19T06:08:59.073Z,80.7
2023-02-19T06:09:59.066Z,80.7
2023-02-19T06:10:59.060Z,80.7
2023-02-19T06:11:59.110Z,80.7
2023-02-19T06:12:59.111Z,80.7
2023-02-19T06:13:59.063Z,80.7
2023-02-19T06:14:59.119Z,80.7
2023-02-19T06:15:59.077Z,80.7
2023-02-19T06:16:59.139Z,80.7
2023-02-19T06:17:59.105Z,80.7
2023-02-19T06:18:59.093Z,80.7
2023-02-19T06:19:59.076Z,80.7
2023-02-19T06:20:59.125Z,80.7
2023-02-19T06:21:59.075Z,80.7
2023-02-19T06:22:59.118Z,80.7
2023-02-19T06:23:59.124Z,80.7
2023-02-19T06:24:59.100Z,80.7
2023-02-19T06:25:59.122Z,80.7
2023-02-19T06:26:59.119Z,80.7
2023-02-19T06:27:59.155Z,80.7
2023-02-19T06:28:59.086Z,80.7
2023-02-19T06:29:59.153Z,80.7
2023-02-19T06:30:59.170Z,80.7
2023-02-19T06:31:59.189Z,80.7
2023-02-19T06:32:59.142Z,80.7
2023-02-19T06:33:59.139Z,80.7
2023-02-19T06:34:59.144Z,80.7
2023-02-19T06:35:59.123Z,79
2023-02-19T06:36:59.195Z,79
2023-02-19T06:37:59.102Z,79
2023-02-19T06:38:59.128Z,79
2023-02-19T06:39:59.170Z,79
2023-02-19T06:40:59.166Z,79
2023-02-19T06:41:59.146Z,79
2023-02-19T06:42:59.153Z,79
2023-02-19T06:43:59.149Z,79
2023-02-19T06:44:59.176Z,79
2023-02-19T06:45:59.185Z,79
2023-02-19T06:46:59.171Z,79
2023-02-19T06:47:59.185Z,79
2023-02-19T06:48:59.157Z,79
2023-02-19T06:49:59.142Z,79
2023-02-19T06:50:59.182Z,79
2023-02-19T06:51:59.181Z,78.4
2023-02-19T06:52:59.232Z,78.4
2023-02-19T06:53:59.178Z,78.3
2023-02-19T06:54:59.140Z,78.3
2023-02-19T06:55:59.166Z,78.3
2023-02-19T06:56:59.140Z,78.3
2023-02-19T06:57:59.202Z,78.3
2023-02-19T06:58:59.175Z,78.3
2023-02-19T06:59:59.192Z,78.3
2023-02-19T07:00:59.209Z,78.3
2023-02-19T07:01:59.329Z,78.3
2023-02-19T07:02:59.216Z,78.3
2023-02-19T07:03:59.394Z,78.3
2023-02-19T07:04:59.202Z,78.3
2023-02-19T07:05:59.250Z,78.3
2023-02-19T07:06:59.174Z,78.3
2023-02-19T07:07:59.171Z,78.3
2023-02-19T07:08:59.159Z,78.3
2023-02-19T07:09:59.170Z,77.6
2023-02-19T07:10:59.149Z,77.6
2023-02-19T07:11:59.171Z,77.6
2023-02-19T07:12:59.165Z,77.6
2023-02-19T07:13:59.210Z,77.6
2023-02-19T07:14:59.174Z,77.6
2023-02-19T07:15:59.240Z,77.6
2023-02-19T07:16:59.208Z,77.6
2023-02-19T07:17:59.180Z,76.1
2023-02-19T07:18:59.206Z,76.1
2023-02-19T07:19:59.211Z,76.1
2023-02-19T07:20:59.143Z,76.1
2023-02-19T07:21:59.171Z,76.1
2023-02-19T07:22:59.212Z,76.1
2023-02-19T07:23:59.383Z,76.1
2023-02-19T07:24:59.205Z,76.1
2023-02-19T07:26:06.453Z,75.9
2023-02-19T07:26:59.174Z,75.9
2023-02-19T07:27:59.208Z,75.9
2023-02-19T07:28:59.211Z,75.9
2023-02-19T07:29:59.284Z,75.9
2023-02-19T07:30:59.217Z,75.9
2023-02-19T07:31:59.245Z,75.9
2023-02-19T07:32:59.210Z,75.9
2023-02-19T07:33:59.209Z,75.9
2023-02-19T07:34:59.228Z,75.9
2023-02-19T07:35:59.205Z,75.9
2023-02-19T07:36:59.223Z,75.9
2023-02-19T07:37:59.266Z,75.9
2023-02-19T07:38:59.243Z,75.9
2023-02-19T07:39:59.219Z,75
2023-02-19T07:40:59.289Z,75
2023-02-19T07:41:59.276Z,75
2023-02-19T07:42:59.214Z,75
2023-02-19T07:43:59.271Z,75
2023-02-19T07:45:00.597Z,75
2023-02-19T07:45:59.246Z,75
2023-02-19T07:46:59.233Z,75
2023-02-19T07:47:59.245Z,74.7
2023-02-19T07:48:59.228Z,74.7
2023-02-19T07:49:59.240Z,74.3
2023-02-19T07:50:59.194Z,74.3
2023-02-19T07:51:59.283Z,74.3
2023-02-19T07:52:59.232Z,74.3
2023-02-19T07:53:59.203Z,74.3
2023-02-19T07:54:59.221Z,74.3
2023-02-19T07:55:59.228Z,74.3
2023-02-19T07:56:59.206Z,74.3
2023-02-19T07:57:59.250Z,74.3
2023-02-19T07:58:59.311Z,74.3
2023-02-19T07:59:59.221Z,72.6
2023-02-19T08:00:59.258Z,72.6
2023-02-19T08:01:59.225Z,72.6
2023-02-19T08:02:59.266Z,72.6
2023-02-19T08:03:59.240Z,72.6
2023-02-19T08:04:59.316Z,72.6
2023-02-19T08:05:59.294Z,72.6
2023-02-19T08:06:59.255Z,72.6
2023-02-19T08:07:59.285Z,72.6
2023-02-19T08:08:59.314Z,72.6
2023-02-19T08:09:59.291Z,72.6
2023-02-19T08:10:59.349Z,72.6
2023-02-19T08:11:59.247Z,72.6
2023-02-19T08:12:59.302Z,71.5
2023-02-19T08:13:59.291Z,71.5
2023-02-19T08:14:59.327Z,71.5
2023-02-19T08:16:10.934Z,71.5
2023-02-19T08:16:59.294Z,71.5
2023-02-19T08:17:59.324Z,71.5
2023-02-19T08:18:59.293Z,71.5
2023-02-19T08:19:59.277Z,71.5
2023-02-19T08:20:59.266Z,71.5
2023-02-19T08:21:59.277Z,71.5
2023-02-19T08:22:59.265Z,71.5
2023-02-19T08:23:59.326Z,71.5
2023-02-19T08:24:59.272Z,71.5
2023-02-19T08:25:59.269Z,71.5
2023-02-19T08:26:59.289Z,71.5
2023-02-19T08:27:59.278Z,71.5
2023-02-19T08:28:59.400Z,71.5
2023-02-19T08:29:59.344Z,71.5
2023-02-19T08:30:59.320Z,71.5
2023-02-19T08:31:59.324Z,71.5
2023-02-19T08:33:01.320Z,71.5
2023-02-19T08:33:59.526Z,71.5
2023-02-19T08:34:59.314Z,71.5
2023-02-19T08:35:59.293Z,69.4
2023-02-19T08:36:59.301Z,69.4
2023-02-19T08:37:59.307Z,69.4
2023-02-19T08:38:59.271Z,69.4
2023-02-19T08:39:59.303Z,69.6
2023-02-19T08:40:59.301Z,69.9
2023-02-19T08:41:59.301Z,69.9
2023-02-19T08:42:59.338Z,69.9
2023-02-19T08:43:59.345Z,69.9
2023-02-19T08:44:59.309Z,69.9
2023-02-19T08:45:59.353Z,69.9
2023-02-19T08:46:59.405Z,69.9
2023-02-19T08:47:59.342Z,69.9
2023-02-19T08:48:59.298Z,69.9
2023-02-19T08:49:59.302Z,69.9
2023-02-19T08:50:59.353Z,70.8
2023-02-19T08:51:59.305Z,70.8
2023-02-19T08:52:59.352Z,70.8
2023-02-19T08:53:59.340Z,70.8
2023-02-19T08:54:59.333Z,70.4
2023-02-19T08:55:59.309Z,70.4
2023-02-19T08:56:59.282Z,71
2023-02-19T08:57:59.302Z,71
2023-02-19T08:58:59.360Z,71
2023-02-19T08:59:59.328Z,71
2023-02-19T09:00:59.356Z,71
2023-02-19T09:01:59.344Z,71
2023-02-19T09:02:59.294Z,71
2023-02-19T09:03:59.312Z,71
2023-02-19T09:04:59.322Z,70.2
2023-02-19T09:05:59.337Z,70.2
2023-02-19T09:06:59.285Z,70.2
2023-02-19T09:07:59.311Z,70.2
2023-02-19T09:08:59.323Z,70.2
2023-02-19T09:09:59.321Z,70.2
2023-02-19T09:10:59.323Z,70.2
2023-02-19T09:11:59.313Z,70.2
2023-02-19T09:12:59.305Z,70.2
2023-02-19T09:13:59.320Z,70.2
2023-02-19T09:14:59.375Z,70.2
2023-02-19T09:15:59.406Z,70.2
2023-02-19T09:16:59.328Z,70.2
2023-02-19T09:17:59.329Z,70.2
2023-02-19T09:18:59.352Z,70.2
2023-02-19T09:20:00.322Z,70.2
2023-02-19T09:21:01.375Z,69.6
2023-02-19T09:22:00.349Z,69.6
2023-02-19T09:22:59.362Z,69.6
2023-02-19T09:23:59.349Z,69.6
2023-02-19T09:24:59.354Z,69.6
2023-02-19T09:26:01.387Z,69.6
2023-02-19T09:26:59.335Z,69.6
2023-02-19T09:27:59.357Z,69.6
2023-02-19T09:28:59.414Z,69.6
2023-02-19T09:29:59.454Z,69.6
2023-02-19T09:30:59.377Z,69.6
2023-02-19T09:31:59.388Z,69.6
2023-02-19T09:32:59.335Z,69.6
2023-02-19T09:33:59.352Z,69.6
2023-02-19T09:34:59.435Z,69.6
2023-02-19T09:35:59.348Z,69.6
2023-02-19T09:36:59.362Z,69
2023-02-19T09:37:59.354Z,69
2023-02-19T09:38:59.370Z,69
2023-02-19T09:39:59.366Z,69
2023-02-19T09:40:59.383Z,69
2023-02-19T09:41:59.342Z,69
2023-02-19T09:43:00.930Z,69
2023-02-19T09:43:59.343Z,69
2023-02-19T09:44:59.358Z,69
2023-02-19T09:45:59.434Z,69
2023-02-19T09:46:59.378Z,69
2023-02-19T09:47:59.348Z,69
2023-02-19T09:48:59.367Z,69
2023-02-19T09:49:59.409Z,69
2023-02-19T09:50:59.348Z,69
2023-02-19T09:51:59.415Z,69
2023-02-19T09:52:59.364Z,69
2023-02-19T09:53:59.941Z,67.7
2023-02-19T09:54:59.443Z,67.7
2023-02-19T09:55:59.377Z,67.7
2023-02-19T09:56:59.385Z,67.7
2023-02-19T09:57:59.383Z,67.7
2023-02-19T09:58:59.404Z,67.7
2023-02-19T09:59:59.355Z,67.7
2023-02-19T10:00:59.372Z,67.7
2023-02-19T10:01:59.423Z,67.7
2023-02-19T10:02:59.375Z,67.7
2023-02-19T10:03:59.410Z,67.7
2023-02-19T10:04:59.390Z,67.7
2023-02-19T10:05:59.413Z,67.7
2023-02-19T10:06:59.408Z,67.7
2023-02-19T10:07:59.384Z,67.7
2023-02-19T10:08:59.411Z,67.7
2023-02-19T10:09:59.421Z,67.7
2023-02-19T10:10:59.384Z,67.7
2023-02-19T10:11:59.387Z,67.7
2023-02-19T10:12:59.436Z,67.7
2023-02-19T10:13:59.409Z,67.7
2023-02-19T10:14:59.448Z,67.7
2023-02-19T10:15:59.437Z,67.7
2023-02-19T10:16:59.403Z,67.7
2023-02-19T10:17:59.419Z,67.7
2023-02-19T10:18:59.457Z,67.7
2023-02-19T10:19:59.459Z,67.7
2023-02-19T10:20:59.412Z,67.7
2023-02-19T10:21:59.410Z,67.7
2023-02-19T10:22:59.460Z,67.7
2023-02-19T10:23:59.481Z,66.7
2023-02-19T10:24:59.443Z,66.7
2023-02-19T10:25:59.440Z,66.7
2023-02-19T10:26:59.433Z,66.7
2023-02-19T10:27:59.462Z,66.7
2023-02-19T10:29:02.435Z,66.7
2023-02-19T10:29:59.477Z,66.7
2023-02-19T10:30:59.526Z,66.7
2023-02-19T10:31:59.477Z,66.7
2023-02-19T10:32:59.450Z,66.8
2023-02-19T10:33:59.451Z,66.7
2023-02-19T10:34:59.449Z,66.7
2023-02-19T10:35:59.491Z,66.7
2023-02-19T10:36:59.443Z,66.7
2023-02-19T10:37:59.438Z,66.7
2023-02-19T10:38:59.454Z,66.7
2023-02-19T10:39:59.426Z,66.7
2023-02-19T10:40:59.480Z,66.7
2023-02-19T10:41:59.449Z,66.7
2023-02-19T10:42:59.465Z,66.7
2023-02-19T10:43:59.438Z,66.5
2023-02-19T10:44:59.430Z,66.5
2023-02-19T10:45:59.463Z,66.5
2023-02-19T10:46:59.501Z,66.5
2023-02-19T10:47:59.490Z,66.5
2023-02-19T10:48:59.470Z,66.5
2023-02-19T10:49:59.459Z,66.5
2023-02-19T10:50:59.448Z,66.5
2023-02-19T10:51:59.499Z,67.1
2023-02-19T10:52:59.417Z,67.1
2023-02-19T10:53:59.438Z,67.1
2023-02-19T10:54:59.451Z,67.1
2023-02-19T10:55:59.597Z,67.1
2023-02-19T10:56:59.453Z,67.2
2023-02-19T10:57:59.445Z,67.2
2023-02-19T10:58:59.459Z,67.2
2023-02-19T10:59:59.475Z,67.2
2023-02-19T11:00:59.462Z,67.2
2023-02-19T11:01:59.476Z,67.2
2023-02-19T11:02:59.455Z,67.2
2023-02-19T11:03:59.453Z,67.2
2023-02-19T11:04:59.420Z,67.2
2023-02-19T11:05:59.477Z,67.2
2023-02-19T11:06:59.479Z,67.2
2023-02-19T11:07:59.455Z,67.2
2023-02-19T11:08:59.461Z,67.2
2023-02-19T11:09:59.554Z,67.2
2023-02-19T11:10:59.484Z,67.2
2023-02-19T11:11:59.556Z,67.2
2023-02-19T11:12:59.510Z,67.2
2023-02-19T11:13:59.499Z,67.2
2023-02-19T11:14:59.548Z,67.2
2023-02-19T11:15:59.551Z,67.2
2023-02-19T11:16:59.463Z,67.2
2023-02-19T11:17:59.549Z,67.2
2023-02-19T11:18:59.469Z,67.2
2023-02-19T11:19:59.512Z,67.2
2023-02-19T11:20:59.515Z,67.2
2023-02-19T11:22:00.669Z,66.5
2023-02-19T11:22:59.456Z,66.5
2023-02-19T11:24:00.035Z,66.5
2023-02-19T11:24:59.612Z,66.5
2023-02-19T11:25:59.546Z,66.5
2023-02-19T11:26:59.503Z,66.5
2023-02-19T11:27:59.493Z,66.5
2023-02-19T11:28:59.487Z,66.4
2023-02-19T11:29:59.569Z,66.4
2023-02-19T11:30:59.563Z,66.2
2023-02-19T11:31:59.577Z,66.2
2023-02-19T11:32:59.506Z,66.2
2023-02-19T11:33:59.586Z,66.2
2023-02-19T11:34:59.499Z,66.2
2023-02-19T11:35:59.497Z,66.2
2023-02-19T11:36:59.533Z,66.2
2023-02-19T11:37:59.520Z,66.2
2023-02-19T11:38:59.501Z,66.2
2023-02-19T11:39:59.497Z,66.2
2023-02-19T11:40:59.540Z,66.2
2023-02-19T11:41:59.489Z,66.2
2023-02-19T11:42:59.529Z,66.5
2023-02-19T11:43:59.536Z,66.5
2023-02-19T11:44:59.541Z,66.5
2023-02-19T11:45:59.529Z,66.5
2023-02-19T11:46:59.504Z,66.5
2023-02-19T11:47:59.552Z,66.5
2023-02-19T11:48:59.531Z,66.5
2023-02-19T11:49:59.535Z,66.5
2023-02-19T11:50:59.500Z,66.5
2023-02-19T11:51:59.550Z,66.5
2023-02-19T11:52:59.539Z,66.5
2023-02-19T11:53:59.537Z,66.5
2023-02-19T11:54:59.527Z,66.5
2023-02-19T11:55:59.543Z,66.5
2023-02-19T11:56:59.560Z,66.5
2023-02-19T11:57:59.515Z,66.5
2023-02-19T11:59:01.004Z,66.5
2023-02-19T11:59:59.515Z,66.5
2023-02-19T12:00:59.511Z,66.5
2023-02-19T12:01:59.512Z,66.5
2023-02-19T12:02:59.509Z,66.5
2023-02-19T12:03:59.502Z,66.5
2023-02-19T12:04:59.561Z,66.5
2023-02-19T12:05:59.552Z,66.5
2023-02-19T12:06:59.752Z,66.5
2023-02-19T12:07:59.515Z,66.5
2023-02-19T12:09:00.550Z,66.5
2023-02-19T12:10:00.591Z,66.5
2023-02-19T12:10:59.526Z,66.5
2023-02-19T12:11:59.652Z,66.5
2023-02-19T12:12:59.765Z,66.5
2023-02-19T12:13:59.526Z,66.5
2023-02-19T12:14:59.577Z,66.5
2023-02-19T12:15:59.545Z,66.5
2023-02-19T12:16:59.517Z,66.5
2023-02-19T12:17:59.520Z,65.9
2023-02-19T12:18:59.529Z,65.9
2023-02-19T12:19:59.539Z,65.9
2023-02-19T12:20:59.561Z,65.9
2023-02-19T12:21:59.512Z,65.9
2023-02-19T12:22:59.605Z,65.9
2023-02-19T12:23:59.538Z,65.9
2023-02-19T12:24:59.541Z,65.9
2023-02-19T12:25:59.591Z,65.9
2023-02-19T12:26:59.525Z,65.9
2023-02-19T12:27:59.548Z,65.9
2023-02-19T12:28:59.590Z,64.9
2023-02-19T12:29:59.571Z,64.9
2023-02-19T12:30:59.674Z,64.9
2023-02-19T12:31:59.568Z,64.9
2023-02-19T12:32:59.540Z,64.9
2023-02-19T12:33:59.579Z,64.9
2023-02-19T12:34:59.552Z,64.9
2023-02-19T12:35:59.551Z,64.9
2023-02-19T12:36:59.560Z,64.4
2023-02-19T12:37:59.535Z,64.4
2023-02-19T12:38:59.601Z,64.4
2023-02-19T12:39:59.555Z,64.4
2023-02-19T12:40:59.545Z,64.4
2023-02-19T12:41:59.532Z,64.4
2023-02-19T12:42:59.543Z,64.4
2023-02-19T12:43:59.550Z,64.4
2023-02-19T12:44:59.599Z,64.4
2023-02-19T12:45:59.587Z,64.4
2023-02-19T12:46:59.562Z,64.4
2023-02-19T12:47:59.559Z,64.4
2023-02-19T12:48:59.539Z,64.4
2023-02-19T12:49:59.574Z,64.4
2023-02-19T12:50:59.560Z,64.4
2023-02-19T12:51:59.544Z,64.4
2023-02-19T12:52:59.546Z,64.4
2023-02-19T12:53:59.552Z,64.4
2023-02-19T12:54:59.589Z,64.4
2023-02-19T12:55:59.548Z,64.4
2023-02-19T12:56:59.558Z,64.4
2023-02-19T12:57:59.550Z,64.4
2023-02-19T12:58:59.551Z,64.4
2023-02-19T12:59:59.551Z,64.4
2023-02-19T13:00:59.695Z,64.4
2023-02-19T13:01:59.627Z,64.4
2023-02-19T13:02:59.564Z,64.4
2023-02-19T13:03:59.547Z,64.4
2023-02-19T13:04:59.562Z,64.4
2023-02-19T13:05:59.577Z,64.4
2023-02-19T13:06:59.555Z,64.4
2023-02-19T13:07:59.553Z,64.4
2023-02-19T13:09:06.837Z,64.4
2023-02-19T13:09:59.549Z,64.4
2023-02-19T13:10:59.604Z,64.4
2023-02-19T13:11:59.574Z,64.4
2023-02-19T13:12:59.584Z,64.4
2023-02-19T13:13:59.536Z,64.4
2023-02-19T13:14:59.540Z,64.4
2023-02-19T13:15:59.611Z,64.4
2023-02-19T13:16:59.570Z,61.9
2023-02-19T13:18:01.391Z,61.9
2023-02-19T13:18:59.623Z,61.9
2023-02-19T13:19:59.572Z,61.3
2023-02-19T13:20:59.572Z,61.3
2023-02-19T13:21:59.567Z,61.3
2023-02-19T13:22:59.581Z,61.3
2023-02-19T13:23:59.574Z,61.3
2023-02-19T13:24:59.618Z,61.3
2023-02-19T13:25:59.579Z,61.3
2023-02-19T13:26:59.578Z,61.3